Portada
METAR-TAF:

METAR-TAF

Aeroports :

Munda, New Georgia, Illes Salomó

latitud: 8-19-41S, longitud: 157-15-47E, altitud: 3 m

Observació

L'informe es va fer fa 38 minuts, a les 21:00 UTC
Vent calma
Temperatura 26°C
Humitat 94%
Pressió 1009 hPa
Visibilitat 10 km o més
Escasses núvols a una alçada de 1800 ft
Escasses núvols a una alçada de 1900 ft, Cumulonimbus.

METAR: AGGM 142100Z 00000KT 9999 FEW018 FEW019CB 26/25 Q1009

Hora: 08:38 (21:38 UTC)

Pronòstic

L'informe es va fer fa 4 hores i 18 minuts, a les 17:20 UTC
Pronòstic vàlid del 14 a les 18 UTC al 15 a les 18 UTC
Vent 10 kt del Oest/Nord-Oest
Visibilitat 10 km o més
Núvols disperses a una alçada de 1800 ft
Probabilitat 30%
entre IN i TE UTC
Visibilitat: 5000 m
Cel ennuvolat a una alçada de 1600 ft
Escasses núvols a una alçada de 1700 ft, Cumulonimbus.

TAF: AGGM 141720Z 1418/1518 30010KT 9999 SCT018 PROB30 INTER 1503/1506 5000 TSSH BKN016 FEW017CB

Observacions i pronòstics meteorològics de més de 4000 aeroports (METAR i TAF).

Les estacions disponibles són els punts grocs i vermells al mapa.

Posi el ratolí al punt desitjat per veure el nom de l'estació.

Feu clic per veure les observacions i els pronòstics meteorològics.

Per canviar el mapa: feu clic els botons verds amb una creu de color negre per apropar; al botó verd amb un guió per allunyar la imatge; o en les fletxes verdes per a mapes adjacents.


METAR-TAF: